SKY141 RJBE-RJFU
Flight info
| Callsign | SKY141 |
|---|---|
| Flight time | 1h 3m |
| Altitude | 38000 |
| Route | MUKRI ATKAS GUMID SOUJA Y281 UKELI Y204 OHGIE |
| Aircraft | B738/M-SDE2E3FGHIRWXY/LB1 |
Departure
| Time | 2026-05-06 00:38 |
|---|---|
| Airport | Kobe Airport (RJBE) |
Arrival
| Time | 2026-05-06 01:41 |
|---|---|
| Airport | Nagasaki Airport (RJFU) |
| Time | Latitude | Longitude | Altitude | Speed | Heading |
|---|---|---|---|---|---|
| 2026-05-06 00:08 | 34.63611 | 135.22863 | 31 ft | 0 kts | 354° |
| 2026-05-06 00:30 | 34.63598 | 135.22865 | 30 ft | 2 kts | 354° |
| 2026-05-06 00:30 | 34.63582 | 135.22867 | 29 ft | 2 kts | 354° |
| 2026-05-06 00:30 | 34.63566 | 135.22869 | 30 ft | 2 kts | 354° |
| 2026-05-06 00:31 | 34.63549 | 135.22871 | 31 ft | 2 kts | 354° |
| 2026-05-06 00:31 | 34.63533 | 135.22872 | 30 ft | 2 kts | 355° |
| 2026-05-06 00:31 | 34.63517 | 135.22875 | 30 ft | 2 kts | 324° |
| 2026-05-06 00:31 | 34.63504 | 135.22888 | 30 ft | 2 kts | 313° |
| 2026-05-06 00:32 | 34.63494 | 135.22903 | 29 ft | 2 kts | 306° |
| 2026-05-06 00:32 | 34.63485 | 135.22920 | 29 ft | 2 kts | 296° |
| 2026-05-06 00:32 | 34.63480 | 135.22933 | 27 ft | 1 kts | 277° |
| 2026-05-06 00:32 | 34.63480 | 135.22934 | 27 ft | 0 kts | 273° |
| 2026-05-06 00:33 | 34.63480 | 135.22933 | 27 ft | 1 kts | 271° |
| 2026-05-06 00:34 | 34.63477 | 135.22904 | 28 ft | 6 kts | 264° |
| 2026-05-06 00:34 | 34.63474 | 135.22855 | 28 ft | 10 kts | 265° |
| 2026-05-06 00:34 | 34.63472 | 135.22839 | 29 ft | 11 kts | 264° |
| 2026-05-06 00:35 | 34.63463 | 135.22727 | 31 ft | 16 kts | 264° |
| 2026-05-06 00:35 | 34.63451 | 135.22566 | 31 ft | 22 kts | 264° |
| 2026-05-06 00:35 | 34.63436 | 135.22360 | 29 ft | 26 kts | 264° |
| 2026-05-06 00:35 | 34.63418 | 135.22139 | 31 ft | 25 kts | 265° |
| 2026-05-06 00:36 | 34.63402 | 135.21932 | 30 ft | 24 kts | 264° |
| 2026-05-06 00:36 | 34.63386 | 135.21739 | 30 ft | 23 kts | 264° |
| 2026-05-06 00:36 | 34.63372 | 135.21550 | 30 ft | 22 kts | 264° |
| 2026-05-06 00:36 | 34.63357 | 135.21361 | 30 ft | 24 kts | 265° |
| 2026-05-06 00:37 | 34.63342 | 135.21154 | 31 ft | 25 kts | 265° |
| 2026-05-06 00:37 | 34.63268 | 135.21042 | 30 ft | 18 kts | 178° |
| 2026-05-06 00:37 | 34.63172 | 135.21108 | 28 ft | 18 kts | 101° |
| 2026-05-06 00:37 | 34.63189 | 135.21367 | 25 ft | 67 kts | 84° |
| 2026-05-06 00:38 | 34.63262 | 135.22293 | 32 ft | 150 kts | 85° |
| 2026-05-06 00:38 | 34.63352 | 135.23744 | 514 ft | 188 kts | 84° |
| 2026-05-06 00:38 | 34.63358 | 135.25406 | 1411 ft | 202 kts | 99° |
| 2026-05-06 00:38 | 34.62751 | 135.26926 | 2363 ft | 207 kts | 138° |
| 2026-05-06 00:39 | 34.61418 | 135.27621 | 3115 ft | 218 kts | 181° |
| 2026-05-06 00:39 | 34.60010 | 135.26994 | 3878 ft | 225 kts | 217° |
| 2026-05-06 00:39 | 34.59040 | 135.25505 | 4495 ft | 231 kts | 249° |
| 2026-05-06 00:39 | 34.58782 | 135.23602 | 5286 ft | 229 kts | 262° |
| 2026-05-06 00:40 | 34.58614 | 135.21665 | 6005 ft | 232 kts | 261° |
| 2026-05-06 00:40 | 34.58420 | 135.19708 | 6781 ft | 235 kts | 259° |
| 2026-05-06 00:40 | 34.58193 | 135.17711 | 7521 ft | 243 kts | 259° |
| 2026-05-06 00:40 | 34.57938 | 135.15644 | 8289 ft | 252 kts | 259° |
| 2026-05-06 00:41 | 34.57672 | 135.13510 | 9047 ft | 259 kts | 259° |
| 2026-05-06 00:41 | 34.57393 | 135.11316 | 9808 ft | 266 kts | 259° |
| 2026-05-06 00:41 | 34.56910 | 135.09147 | 10523 ft | 266 kts | 246° |
| 2026-05-06 00:41 | 34.56200 | 135.07062 | 11248 ft | 268 kts | 246° |
| 2026-05-06 00:42 | 34.55787 | 135.04865 | 11955 ft | 271 kts | 269° |
| 2026-05-06 00:42 | 34.55877 | 135.02612 | 12722 ft | 271 kts | 271° |
| 2026-05-06 00:42 | 34.55976 | 135.00328 | 13496 ft | 271 kts | 271° |
| 2026-05-06 00:42 | 34.56063 | 134.98027 | 14128 ft | 277 kts | 270° |
| 2026-05-06 00:43 | 34.56142 | 134.95651 | 14622 ft | 286 kts | 270° |
| 2026-05-06 00:43 | 34.56217 | 134.93199 | 15113 ft | 295 kts | 270° |
| 2026-05-06 00:43 | 34.56293 | 134.90678 | 15615 ft | 303 kts | 270° |
| 2026-05-06 00:43 | 34.56362 | 134.88091 | 16122 ft | 311 kts | 269° |
| 2026-05-06 00:44 | 34.56426 | 134.85434 | 16647 ft | 319 kts | 269° |
| 2026-05-06 00:44 | 34.56491 | 134.82714 | 17156 ft | 326 kts | 269° |
| 2026-05-06 00:44 | 34.56557 | 134.79934 | 17686 ft | 333 kts | 269° |
| 2026-05-06 00:44 | 34.56623 | 134.77132 | 18216 ft | 339 kts | 269° |
| 2026-05-06 00:45 | 34.56671 | 134.74249 | 18720 ft | 345 kts | 268° |
| 2026-05-06 00:45 | 34.56708 | 134.71335 | 19183 ft | 345 kts | 268° |
| 2026-05-06 00:45 | 34.56742 | 134.68444 | 19651 ft | 341 kts | 268° |
| 2026-05-06 00:45 | 34.56776 | 134.65583 | 20203 ft | 336 kts | 268° |
| 2026-05-06 00:46 | 34.56809 | 134.62770 | 20806 ft | 332 kts | 267° |
| 2026-05-06 00:46 | 34.56842 | 134.59966 | 21441 ft | 332 kts | 267° |
| 2026-05-06 00:46 | 34.56874 | 134.57164 | 22076 ft | 332 kts | 267° |
| 2026-05-06 00:46 | 34.56905 | 134.54399 | 22726 ft | 331 kts | 266° |
| 2026-05-06 00:47 | 34.56937 | 134.51617 | 23380 ft | 329 kts | 266° |
| 2026-05-06 00:47 | 34.56968 | 134.48846 | 24002 ft | 327 kts | 266° |
| 2026-05-06 00:47 | 34.56998 | 134.46097 | 24554 ft | 325 kts | 266° |
| 2026-05-06 00:47 | 34.57028 | 134.43367 | 25115 ft | 323 kts | 265° |
| 2026-05-06 00:48 | 34.57057 | 134.40652 | 25695 ft | 320 kts | 265° |
| 2026-05-06 00:48 | 34.57086 | 134.37968 | 26283 ft | 317 kts | 264° |
| 2026-05-06 00:48 | 34.57112 | 134.35297 | 26760 ft | 317 kts | 264° |
| 2026-05-06 00:48 | 34.57138 | 134.32619 | 27255 ft | 316 kts | 264° |
| 2026-05-06 00:49 | 34.57163 | 134.29947 | 27742 ft | 316 kts | 263° |
| 2026-05-06 00:49 | 34.57187 | 134.27270 | 28109 ft | 319 kts | 263° |
| 2026-05-06 00:49 | 34.57211 | 134.24598 | 28496 ft | 321 kts | 263° |
| 2026-05-06 00:49 | 34.57235 | 134.21885 | 28922 ft | 322 kts | 263° |
| 2026-05-06 00:50 | 34.57259 | 134.19166 | 29326 ft | 323 kts | 263° |
| 2026-05-06 00:50 | 34.57283 | 134.16435 | 29732 ft | 324 kts | 262° |
| 2026-05-06 00:50 | 34.57307 | 134.13701 | 30143 ft | 325 kts | 262° |
| 2026-05-06 00:50 | 34.57330 | 134.10957 | 30479 ft | 325 kts | 262° |
| 2026-05-06 00:51 | 34.57352 | 134.08205 | 30830 ft | 325 kts | 262° |
| 2026-05-06 00:51 | 34.57373 | 134.05464 | 31186 ft | 325 kts | 263° |
| 2026-05-06 00:51 | 34.57574 | 134.02693 | 31562 ft | 334 kts | 270° |
| 2026-05-06 00:51 | 34.58057 | 133.99930 | 31942 ft | 335 kts | 271° |
| 2026-05-06 00:52 | 34.58579 | 133.97172 | 32303 ft | 335 kts | 272° |
| 2026-05-06 00:52 | 34.59099 | 133.94420 | 32671 ft | 334 kts | 271° |
| 2026-05-06 00:52 | 34.59605 | 133.91675 | 33048 ft | 332 kts | 271° |
| 2026-05-06 00:52 | 34.60099 | 133.88944 | 33425 ft | 330 kts | 271° |
| 2026-05-06 00:53 | 34.60584 | 133.86221 | 33761 ft | 329 kts | 271° |
| 2026-05-06 00:53 | 34.61058 | 133.83538 | 34090 ft | 328 kts | 271° |
| 2026-05-06 00:53 | 34.61533 | 133.80845 | 34483 ft | 325 kts | 270° |
| 2026-05-06 00:53 | 34.62005 | 133.78166 | 34821 ft | 323 kts | 270° |
| 2026-05-06 00:54 | 34.62459 | 133.75504 | 35078 ft | 319 kts | 267° |
| 2026-05-06 00:54 | 34.62553 | 133.72871 | 35317 ft | 307 kts | 258° |
| 2026-05-06 00:54 | 34.62250 | 133.70335 | 35556 ft | 303 kts | 253° |
| 2026-05-06 00:55 | 34.61582 | 133.66092 | 35563 ft | 313 kts | 253° |
| 2026-05-06 00:55 | 34.60743 | 133.60855 | 35890 ft | 315 kts | 253° |
| 2026-05-06 00:55 | 34.60331 | 133.58243 | 36123 ft | 314 kts | 254° |
| 2026-05-06 00:56 | 34.59922 | 133.55639 | 36373 ft | 313 kts | 254° |
| 2026-05-06 00:56 | 34.59517 | 133.53042 | 36619 ft | 312 kts | 254° |
| 2026-05-06 00:56 | 34.59113 | 133.50447 | 36873 ft | 311 kts | 254° |
| 2026-05-06 00:56 | 34.58715 | 133.47895 | 37009 ft | 313 kts | 254° |
| 2026-05-06 00:57 | 34.58304 | 133.45261 | 37150 ft | 314 kts | 254° |
| 2026-05-06 00:57 | 34.57482 | 133.40024 | 37242 ft | 323 kts | 254° |
| 2026-05-06 00:58 | 34.56632 | 133.34600 | 37481 ft | 327 kts | 255° |
| 2026-05-06 00:58 | 34.56210 | 133.31894 | 37720 ft | 325 kts | 255° |
| 2026-05-06 00:58 | 34.55791 | 133.29211 | 37962 ft | 323 kts | 255° |
| 2026-05-06 00:58 | 34.55370 | 133.26531 | 38197 ft | 322 kts | 255° |
| 2026-05-06 00:59 | 34.54947 | 133.23849 | 38176 ft | 326 kts | 255° |
| 2026-05-06 00:59 | 34.54086 | 133.18401 | 38211 ft | 332 kts | 255° |
| 2026-05-06 01:00 | 34.53198 | 133.12848 | 38193 ft | 339 kts | 255° |
| 2026-05-06 01:00 | 34.52303 | 133.07191 | 38201 ft | 344 kts | 255° |
| 2026-05-06 01:01 | 34.51395 | 133.01475 | 38212 ft | 349 kts | 255° |
| 2026-05-06 01:01 | 34.50466 | 132.95651 | 38203 ft | 354 kts | 255° |
| 2026-05-06 01:02 | 34.49524 | 132.89765 | 38196 ft | 354 kts | 255° |
| 2026-05-06 01:02 | 34.48593 | 132.83960 | 38176 ft | 348 kts | 255° |
| 2026-05-06 01:03 | 34.47673 | 132.78257 | 38197 ft | 345 kts | 254° |
| 2026-05-06 01:03 | 34.46623 | 132.72566 | 38194 ft | 341 kts | 249° |
| 2026-05-06 01:04 | 34.45114 | 132.67153 | 38162 ft | 340 kts | 249° |
| 2026-05-06 01:04 | 34.43577 | 132.61725 | 38182 ft | 340 kts | 249° |
| 2026-05-06 01:05 | 34.42034 | 132.56258 | 38207 ft | 345 kts | 248° |
| 2026-05-06 01:05 | 34.40471 | 132.50691 | 38184 ft | 352 kts | 249° |
| 2026-05-06 01:06 | 34.38898 | 132.45079 | 38189 ft | 355 kts | 249° |
| 2026-05-06 01:06 | 34.37313 | 132.39426 | 38179 ft | 351 kts | 249° |
| 2026-05-06 01:07 | 34.35757 | 132.33887 | 38184 ft | 346 kts | 248° |
| 2026-05-06 01:07 | 34.34211 | 132.28400 | 38180 ft | 343 kts | 248° |
| 2026-05-06 01:08 | 34.32682 | 132.22984 | 38191 ft | 343 kts | 248° |
| 2026-05-06 01:08 | 34.31121 | 132.17473 | 38204 ft | 349 kts | 248° |
| 2026-05-06 01:09 | 34.29525 | 132.11854 | 38153 ft | 355 kts | 248° |
| 2026-05-06 01:09 | 34.27932 | 132.06235 | 38175 ft | 351 kts | 248° |
| 2026-05-06 01:10 | 34.26353 | 132.00678 | 38166 ft | 347 kts | 248° |
| 2026-05-06 01:10 | 34.24783 | 131.95176 | 38185 ft | 348 kts | 248° |
| 2026-05-06 01:11 | 34.23194 | 131.89607 | 38198 ft | 354 kts | 248° |
| 2026-05-06 01:11 | 34.21577 | 131.83961 | 38163 ft | 353 kts | 248° |
| 2026-05-06 01:12 | 34.19981 | 131.78390 | 38169 ft | 348 kts | 248° |
| 2026-05-06 01:12 | 34.18403 | 131.72901 | 38174 ft | 350 kts | 248° |
| 2026-05-06 01:13 | 34.16790 | 131.67304 | 38166 ft | 355 kts | 248° |
| 2026-05-06 01:13 | 34.15152 | 131.61626 | 38177 ft | 359 kts | 248° |
| 2026-05-06 01:14 | 34.12694 | 131.53038 | 38165 ft | 358 kts | 248° |
| 2026-05-06 01:14 | 34.11041 | 131.47398 | 38166 ft | 355 kts | 248° |
| 2026-05-06 01:15 | 34.09422 | 131.41839 | 38134 ft | 353 kts | 248° |
| 2026-05-06 01:15 | 34.07804 | 131.36274 | 38158 ft | 351 kts | 248° |
| 2026-05-06 01:16 | 34.06091 | 131.30732 | 38125 ft | 354 kts | 243° |
| 2026-05-06 01:16 | 34.03878 | 131.25423 | 37629 ft | 356 kts | 241° |
| 2026-05-06 01:17 | 34.02764 | 131.22777 | 37133 ft | 352 kts | 241° |
| 2026-05-06 01:17 | 34.01664 | 131.20155 | 36616 ft | 350 kts | 241° |
| 2026-05-06 01:17 | 34.00582 | 131.17569 | 36137 ft | 348 kts | 240° |
| 2026-05-06 01:17 | 33.99499 | 131.14975 | 35646 ft | 345 kts | 240° |
| 2026-05-06 01:18 | 33.98424 | 131.12399 | 35200 ft | 343 kts | 240° |
| 2026-05-06 01:18 | 33.97356 | 131.09837 | 34734 ft | 341 kts | 240° |
| 2026-05-06 01:18 | 33.96295 | 131.07299 | 34270 ft | 338 kts | 240° |
| 2026-05-06 01:18 | 33.95241 | 131.04777 | 33733 ft | 335 kts | 239° |
| 2026-05-06 01:19 | 33.94196 | 131.02276 | 33220 ft | 333 kts | 239° |
| 2026-05-06 01:19 | 33.93161 | 130.99796 | 32708 ft | 330 kts | 240° |
| 2026-05-06 01:19 | 33.92135 | 130.97335 | 32210 ft | 328 kts | 240° |
| 2026-05-06 01:19 | 33.91116 | 130.94892 | 31719 ft | 324 kts | 240° |
| 2026-05-06 01:20 | 33.90099 | 130.92457 | 31239 ft | 328 kts | 240° |
| 2026-05-06 01:20 | 33.89055 | 130.89964 | 30805 ft | 337 kts | 240° |
| 2026-05-06 01:20 | 33.87988 | 130.87417 | 30345 ft | 343 kts | 241° |
| 2026-05-06 01:20 | 33.86913 | 130.84848 | 29811 ft | 344 kts | 241° |
| 2026-05-06 01:21 | 33.85831 | 130.82261 | 29216 ft | 348 kts | 241° |
| 2026-05-06 01:21 | 33.84730 | 130.79635 | 28685 ft | 355 kts | 241° |
| 2026-05-06 01:21 | 33.83601 | 130.76938 | 28208 ft | 367 kts | 241° |
| 2026-05-06 01:21 | 33.82433 | 130.74166 | 27662 ft | 374 kts | 242° |
| 2026-05-06 01:22 | 33.81255 | 130.71362 | 27122 ft | 379 kts | 242° |
| 2026-05-06 01:22 | 33.80054 | 130.68502 | 26497 ft | 387 kts | 242° |
| 2026-05-06 01:22 | 33.78846 | 130.65630 | 25903 ft | 393 kts | 242° |
| 2026-05-06 01:22 | 33.77599 | 130.62666 | 25303 ft | 400 kts | 243° |
| 2026-05-06 01:23 | 33.76336 | 130.59668 | 24721 ft | 402 kts | 243° |
| 2026-05-06 01:23 | 33.75072 | 130.56670 | 24123 ft | 399 kts | 243° |
| 2026-05-06 01:23 | 33.73823 | 130.53708 | 23561 ft | 395 kts | 243° |
| 2026-05-06 01:23 | 33.72584 | 130.50774 | 22895 ft | 393 kts | 243° |
| 2026-05-06 01:24 | 33.71347 | 130.47847 | 22243 ft | 391 kts | 243° |
| 2026-05-06 01:24 | 33.70117 | 130.44941 | 21607 ft | 390 kts | 243° |
| 2026-05-06 01:24 | 33.68808 | 130.42086 | 20973 ft | 390 kts | 236° |
| 2026-05-06 01:24 | 33.67049 | 130.39595 | 20373 ft | 391 kts | 226° |
| 2026-05-06 01:25 | 33.65008 | 130.37496 | 19776 ft | 392 kts | 218° |
| 2026-05-06 01:25 | 33.62653 | 130.35829 | 19187 ft | 394 kts | 209° |
| 2026-05-06 01:25 | 33.60213 | 130.34348 | 18617 ft | 393 kts | 208° |
| 2026-05-06 01:25 | 33.57766 | 130.32880 | 17989 ft | 392 kts | 208° |
| 2026-05-06 01:26 | 33.55330 | 130.31414 | 17337 ft | 391 kts | 208° |
| 2026-05-06 01:26 | 33.52903 | 130.29941 | 16685 ft | 388 kts | 209° |
| 2026-05-06 01:26 | 33.50504 | 130.28471 | 16062 ft | 386 kts | 209° |
| 2026-05-06 01:26 | 33.48119 | 130.27008 | 15451 ft | 384 kts | 209° |
| 2026-05-06 01:27 | 33.45779 | 130.25574 | 14856 ft | 381 kts | 209° |
| 2026-05-06 01:27 | 33.43420 | 130.24128 | 14270 ft | 380 kts | 209° |
| 2026-05-06 01:27 | 33.41070 | 130.22685 | 13666 ft | 378 kts | 209° |
| 2026-05-06 01:27 | 33.38729 | 130.21249 | 13023 ft | 376 kts | 209° |
| 2026-05-06 01:28 | 33.36403 | 130.19824 | 12385 ft | 375 kts | 208° |
| 2026-05-06 01:28 | 33.34081 | 130.18420 | 11759 ft | 373 kts | 206° |
| 2026-05-06 01:28 | 33.31589 | 130.17610 | 11242 ft | 372 kts | 185° |
| 2026-05-06 01:28 | 33.29077 | 130.17526 | 11122 ft | 363 kts | 183° |
| 2026-05-06 01:29 | 33.26564 | 130.17398 | 11021 ft | 354 kts | 184° |
| 2026-05-06 01:29 | 33.24164 | 130.17254 | 10982 ft | 338 kts | 184° |
| 2026-05-06 01:29 | 33.21880 | 130.17112 | 10968 ft | 318 kts | 185° |
| 2026-05-06 01:29 | 33.19748 | 130.16977 | 10969 ft | 296 kts | 185° |
| 2026-05-06 01:30 | 33.17755 | 130.16850 | 10931 ft | 278 kts | 185° |
| 2026-05-06 01:30 | 33.15827 | 130.16726 | 10547 ft | 275 kts | 185° |
| 2026-05-06 01:30 | 33.13945 | 130.16604 | 10238 ft | 265 kts | 185° |
| 2026-05-06 01:30 | 33.12125 | 130.16487 | 9770 ft | 259 kts | 185° |
| 2026-05-06 01:31 | 33.10349 | 130.16374 | 9255 ft | 253 kts | 185° |
| 2026-05-06 01:31 | 33.08603 | 130.16262 | 8742 ft | 249 kts | 185° |
| 2026-05-06 01:31 | 33.06888 | 130.16153 | 8237 ft | 245 kts | 185° |
| 2026-05-06 01:31 | 33.05199 | 130.16046 | 7760 ft | 240 kts | 185° |
| 2026-05-06 01:32 | 33.03551 | 130.15941 | 7271 ft | 235 kts | 185° |
| 2026-05-06 01:32 | 33.01947 | 130.15840 | 7059 ft | 225 kts | 185° |
| 2026-05-06 01:32 | 33.00377 | 130.15740 | 6762 ft | 229 kts | 185° |
| 2026-05-06 01:32 | 32.98787 | 130.15639 | 6405 ft | 227 kts | 185° |
| 2026-05-06 01:33 | 32.97218 | 130.15539 | 6011 ft | 224 kts | 185° |
| 2026-05-06 01:33 | 32.95670 | 130.15441 | 5629 ft | 221 kts | 185° |
| 2026-05-06 01:33 | 32.94158 | 130.15346 | 5258 ft | 219 kts | 185° |
| 2026-05-06 01:33 | 32.92640 | 130.15249 | 5024 ft | 219 kts | 184° |
| 2026-05-06 01:34 | 32.91101 | 130.15151 | 5004 ft | 222 kts | 184° |
| 2026-05-06 01:34 | 32.89563 | 130.15054 | 4990 ft | 220 kts | 184° |
| 2026-05-06 01:34 | 32.88041 | 130.14959 | 4985 ft | 219 kts | 184° |
| 2026-05-06 01:34 | 32.86508 | 130.14864 | 4990 ft | 219 kts | 184° |
| 2026-05-06 01:35 | 32.84996 | 130.14770 | 4987 ft | 220 kts | 184° |
| 2026-05-06 01:35 | 32.83463 | 130.14675 | 4990 ft | 221 kts | 184° |
| 2026-05-06 01:35 | 32.81927 | 130.14579 | 4902 ft | 222 kts | 184° |
| 2026-05-06 01:35 | 32.80398 | 130.14317 | 4611 ft | 224 kts | 203° |
| 2026-05-06 01:36 | 32.79181 | 130.13203 | 4381 ft | 219 kts | 226° |
| 2026-05-06 01:36 | 32.78177 | 130.11879 | 4101 ft | 213 kts | 228° |
| 2026-05-06 01:36 | 32.77490 | 130.10327 | 3686 ft | 217 kts | 260° |
| 2026-05-06 01:36 | 32.77635 | 130.08559 | 3328 ft | 216 kts | 285° |
| 2026-05-06 01:37 | 32.78096 | 130.06872 | 3027 ft | 211 kts | 287° |
| 2026-05-06 01:37 | 32.78621 | 130.05283 | 2979 ft | 205 kts | 303° |
| 2026-05-06 01:37 | 32.79672 | 130.04242 | 2900 ft | 192 kts | 331° |
| 2026-05-06 01:37 | 32.80678 | 130.03263 | 2637 ft | 181 kts | 312° |
| 2026-05-06 01:38 | 32.81538 | 130.02227 | 2411 ft | 173 kts | 317° |
| 2026-05-06 01:38 | 32.82410 | 130.01299 | 2227 ft | 167 kts | 318° |
| 2026-05-06 01:38 | 32.83278 | 130.00374 | 1985 ft | 168 kts | 319° |
| 2026-05-06 01:38 | 32.84144 | 129.99446 | 1761 ft | 167 kts | 318° |
| 2026-05-06 01:39 | 32.85006 | 129.98521 | 1535 ft | 166 kts | 319° |
| 2026-05-06 01:39 | 32.85858 | 129.97606 | 1306 ft | 163 kts | 318° |
| 2026-05-06 01:39 | 32.86681 | 129.96722 | 1094 ft | 158 kts | 318° |
| 2026-05-06 01:39 | 32.87483 | 129.95863 | 992 ft | 150 kts | 318° |
| 2026-05-06 01:40 | 32.88253 | 129.95022 | 731 ft | 149 kts | 317° |
| 2026-05-06 01:40 | 32.89013 | 129.94224 | 521 ft | 143 kts | 318° |
| 2026-05-06 01:40 | 32.89754 | 129.93440 | 319 ft | 141 kts | 317° |
| 2026-05-06 01:40 | 32.90461 | 129.92671 | 114 ft | 136 kts | 316° |
| 2026-05-06 01:41 | 32.91134 | 129.91944 | 14 ft | 120 kts | 317° |
| 2026-05-06 01:41 | 32.91612 | 129.91432 | 13 ft | 61 kts | 318° |
| 2026-05-06 01:41 | 32.91842 | 129.91187 | 12 ft | 30 kts | 318° |
| 2026-05-06 01:41 | 32.91971 | 129.91116 | 14 ft | 16 kts | 30° |
| 2026-05-06 01:42 | 32.92038 | 129.91218 | 10 ft | 16 kts | 86° |
| 2026-05-06 01:42 | 32.91996 | 129.91297 | 9 ft | 16 kts | 138° |
| 2026-05-06 01:42 | 32.91911 | 129.91388 | 7 ft | 16 kts | 138° |
| 2026-05-06 01:42 | 32.91829 | 129.91475 | 11 ft | 16 kts | 138° |
| 2026-05-06 01:43 | 32.91747 | 129.91562 | 9 ft | 16 kts | 138° |
| 2026-05-06 01:43 | 32.91664 | 129.91652 | 11 ft | 16 kts | 138° |
| 2026-05-06 01:43 | 32.91583 | 129.91739 | 14 ft | 15 kts | 138° |
| 2026-05-06 01:43 | 32.91504 | 129.91823 | 12 ft | 15 kts | 137° |
| 2026-05-06 01:44 | 32.91425 | 129.91909 | 15 ft | 15 kts | 138° |
| 2026-05-06 01:44 | 32.91347 | 129.91993 | 13 ft | 16 kts | 137° |
| 2026-05-06 01:44 | 32.91253 | 129.92092 | 11 ft | 19 kts | 139° |
| 2026-05-06 01:44 | 32.91208 | 129.92158 | 9 ft | 4 kts | 74° |
| 2026-05-06 01:45 | 32.91231 | 129.92184 | 10 ft | 5 kts | 45° |
| 2026-05-06 01:45 | 32.91258 | 129.92219 | 10 ft | 7 kts | 47° |
| 2026-05-06 01:45 | 32.91291 | 129.92261 | 12 ft | 4 kts | 46° |
| 2026-05-06 01:45 | 32.91298 | 129.92270 | 12 ft | 1 kts | 47° |
| 2026-05-06 01:46 | 32.91299 | 129.92272 | 12 ft | 0 kts | 47° |